Maspalomas — EA3539 — position and weather

sailwx.info

Track history (hours):
 
Tides and Currents Weather Stations Pressure Air Temp Water Temp Dewpoint Dewpoint Depression Visibility Wind Speed Wind Dir Waves Ship Positions

Maspalomas

Last reported at 2018-Apr-22 17:29 UTC. Time now 2018-Apr-26 11:39 UTC.
Position N 28°09' W 015°26'.

Length 23 m.

Type: Port tender. MMSI: 224060250.

Date/timePositionNaut miles runAvg speedWind from/ knotsBaromVisibWave heightAir tempDewpointWater temp
2018-Apr-22 17:29N 28°09' W 015°26'5 9.1
2018-Apr-22 16:57N 28°07' W 015°21'1 2.1
2018-Apr-22 16:27N 28°07' W 015°22'  
2018-Apr-20 12:14N 28°09' W 015°26'1 5.8
2018-Apr-20 12:00N 28°08' W 015°25'2 3.9
2018-Apr-20 11:26N 28°06' W 015°24'2 4.0
2018-Apr-20 10:58N 28°07' W 015°25'2 0.1
2018-Apr-19 19:50N 28°09' W 015°26'2 7.0
2018-Apr-19 19:30N 28°07' W 015°24'1 2.7
2018-Apr-19 19:00N 28°08' W 015°25'1 1.0
2018-Apr-19 18:28N 28°08' W 015°25'1 1.1
2018-Apr-19 18:00N 28°09' W 015°26'0 0.0
2018-Apr-19 17:28N 28°09' W 015°26'0 0.0
2018-Apr-19 16:58N 28°09' W 015°26'0 0.0
2018-Apr-19 16:28N 28°09' W 015°26'0 0.0
2018-Apr-17 12:59N 28°09' W 015°26'3 5.1
2018-Apr-17 12:29N 28°07' W 015°24'0 0.0
2018-Apr-17 12:00N 28°07' W 015°24'0 0.0
2018-Apr-17 11:30N 28°07' W 015°24'0 0.0
2018-Apr-17 10:48N 28°07' W 015°24'0 0.0
2018-Apr-17 10:22N 28°07' W 015°24'0 0.0
2018-Apr-17 09:52N 28°07' W 015°24'0 0.1
2018-Apr-17 09:30N 28°07' W 015°24'0 0.2
2018-Apr-17 09:00N 28°07' W 015°24'3 4.5
2018-Apr-17 08:27N 28°09' W 015°26'0 0.0
2018-Apr-16 14:01N 28°09' W 015°26'0 0.1
2018-Apr-16 13:57N 28°09' W 015°26'3 3.0
2018-Apr-16 13:05N 28°07' W 015°24'0 0.0
2018-Apr-16 13:00N 28°07' W 015°24'0 0.0
2018-Apr-16 12:30N 28°07' W 015°24'0 0.0
2018-Apr-16 11:50N 28°07' W 015°24'0 0.0
2018-Apr-16 11:28N 28°07' W 015°24'3 4.5
2018-Apr-16 10:53N 28°09' W 015°26'0 0.0
2018-Apr-16 10:23N 28°09' W 015°26'0 0.0
2018-Apr-16 09:53N 28°09' W 015°26'1 3.8
2018-Apr-16 09:30N 28°07' W 015°25'2 3.5
2018-Apr-16 08:56N 28°06' W 015°24'3 0.2
2018-Apr-15 12:44N 28°09' W 015°26'2 6.6
2018-Apr-15 12:28N 28°07' W 015°25'1 1.3
2018-Apr-15 12:00N 28°07' W 015°24'0 0.0
2018-Apr-15 11:29N 28°07' W 015°24'0 0.0
2018-Apr-15 10:53N 28°07' W 015°24'0 0.0
2018-Apr-15 10:26N 28°07' W 015°24'0 0.0
2018-Apr-15 09:58N 28°07' W 015°24'0 0.0
2018-Apr-15 09:30N 28°07' W 015°24'0 0.0
2018-Apr-15 08:59N 28°07' W 015°24'0 0.0
2018-Apr-15 08:21N 28°07' W 015°24'0 0.0
2018-Apr-15 07:57N 28°07' W 015°24'0 0.0
2018-Apr-15 07:29N 28°07' W 015°24'0 0.1
2018-Apr-15 06:58N 28°07' W 015°24'2 4.3
2018-Apr-15 06:29N 28°09' W 015°26'0 0.0
2018-Apr-15 05:59N 28°09' W 015°26'0 0.0
2018-Apr-15 05:14N 28°09' W 015°26'0 0.0
2018-Apr-13 01:33N 28°09' W 015°26'0 0.1
2018-Apr-13 01:29N 28°09' W 015°26'3 4.6
2018-Apr-13 00:54N 28°06' W 015°24'0 0.0
2018-Apr-13 00:24N 28°06' W 015°24'0 0.0
2018-Apr-12 23:53N 28°06' W 015°24'0 0.0
2018-Apr-12 23:23N 28°06' W 015°24'2 4.2
2018-Apr-12 23:00N 28°08' W 015°25'1 0.4
2018-Apr-12 19:53N 28°09' W 015°26'2 5.3
2018-Apr-12 19:30N 28°08' W 015°24'0 0.2
2018-Apr-12 19:00N 28°08' W 015°24'1 1.6
2018-Apr-12 18:26N 28°07' W 015°24'0 1.0
2018-Apr-12 18:00N 28°08' W 015°25'1 2.5
2018-Apr-12 17:29N 28°06' W 015°24'  
Track history (hours):
 
Tides and Currents Weather Stations Pressure Air Temp Water Temp Dewpoint Dewpoint Depression Visibility Wind Speed Wind Dir Waves Ship Positions

Maspalomas

Last reported at 2018-Apr-22 17:29 UTC. Time now 2018-Apr-26 11:39 UTC.
Position N 28°09' W 015°26'.

Length 23 m.

Type: Port tender. MMSI: 224060250.

Date/timePositionNaut miles runAvg speedWind from/ knotsBaromVisibWave heightAir tempDewpointWater temp
2018-Apr-22 17:29N 28°09' W 015°26'5 9.1
2018-Apr-22 16:57N 28°07' W 015°21'1 2.1
2018-Apr-22 16:27N 28°07' W 015°22'  
2018-Apr-20 12:14N 28°09' W 015°26'1 5.8
2018-Apr-20 12:00N 28°08' W 015°25'2 3.9
2018-Apr-20 11:26N 28°06' W 015°24'2 4.0
2018-Apr-20 10:58N 28°07' W 015°25'2 0.1
2018-Apr-19 19:50N 28°09' W 015°26'2 7.0
2018-Apr-19 19:30N 28°07' W 015°24'1 2.7
2018-Apr-19 19:00N 28°08' W 015°25'1 1.0
2018-Apr-19 18:28N 28°08' W 015°25'1 1.1
2018-Apr-19 18:00N 28°09' W 015°26'0 0.0
2018-Apr-19 17:28N 28°09' W 015°26'0 0.0
2018-Apr-19 16:58N 28°09' W 015°26'0 0.0
2018-Apr-19 16:28N 28°09' W 015°26'0 0.0
2018-Apr-17 12:59N 28°09' W 015°26'3 5.1
2018-Apr-17 12:29N 28°07' W 015°24'0 0.0
2018-Apr-17 12:00N 28°07' W 015°24'0 0.0
2018-Apr-17 11:30N 28°07' W 015°24'0 0.0
2018-Apr-17 10:48N 28°07' W 015°24'0 0.0
2018-Apr-17 10:22N 28°07' W 015°24'0 0.0
2018-Apr-17 09:52N 28°07' W 015°24'0 0.1
2018-Apr-17 09:30N 28°07' W 015°24'0 0.2
2018-Apr-17 09:00N 28°07' W 015°24'3 4.5
2018-Apr-17 08:27N 28°09' W 015°26'0 0.0
2018-Apr-16 14:01N 28°09' W 015°26'0 0.1
2018-Apr-16 13:57N 28°09' W 015°26'3 3.0
2018-Apr-16 13:05N 28°07' W 015°24'0 0.0
2018-Apr-16 13:00N 28°07' W 015°24'0 0.0
2018-Apr-16 12:30N 28°07' W 015°24'0 0.0
2018-Apr-16 11:50N 28°07' W 015°24'0 0.0
2018-Apr-16 11:28N 28°07' W 015°24'3 4.5
2018-Apr-16 10:53N 28°09' W 015°26'0 0.0
2018-Apr-16 10:23N 28°09' W 015°26'0 0.0
2018-Apr-16 09:53N 28°09' W 015°26'1 3.8
2018-Apr-16 09:30N 28°07' W 015°25'2 3.5
2018-Apr-16 08:56N 28°06' W 015°24'3 0.2
2018-Apr-15 12:44N 28°09' W 015°26'2 6.6
2018-Apr-15 12:28N 28°07' W 015°25'1 1.3
2018-Apr-15 12:00N 28°07' W 015°24'0 0.0
2018-Apr-15 11:29N 28°07' W 015°24'0 0.0
2018-Apr-15 10:53N 28°07' W 015°24'0 0.0
2018-Apr-15 10:26N 28°07' W 015°24'0 0.0
2018-Apr-15 09:58N 28°07' W 015°24'0 0.0
2018-Apr-15 09:30N 28°07' W 015°24'0 0.0
2018-Apr-15 08:59N 28°07' W 015°24'0 0.0
2018-Apr-15 08:21N 28°07' W 015°24'0 0.0
2018-Apr-15 07:57N 28°07' W 015°24'0 0.0
2018-Apr-15 07:29N 28°07' W 015°24'0 0.1
2018-Apr-15 06:58N 28°07' W 015°24'2 4.3
2018-Apr-15 06:29N 28°09' W 015°26'0 0.0
2018-Apr-15 05:59N 28°09' W 015°26'0 0.0
2018-Apr-15 05:14N 28°09' W 015°26'0 0.0
2018-Apr-13 01:33N 28°09' W 015°26'0 0.1
2018-Apr-13 01:29N 28°09' W 015°26'3 4.6
2018-Apr-13 00:54N 28°06' W 015°24'0 0.0
2018-Apr-13 00:24N 28°06' W 015°24'0 0.0
2018-Apr-12 23:53N 28°06' W 015°24'0 0.0
2018-Apr-12 23:23N 28°06' W 015°24'2 4.2
2018-Apr-12 23:00N 28°08' W 015°25'1 0.4
2018-Apr-12 19:53N 28°09' W 015°26'2 5.3
2018-Apr-12 19:30N 28°08' W 015°24'0 0.2
2018-Apr-12 19:00N 28°08' W 015°24'1 1.6
2018-Apr-12 18:26N 28°07' W 015°24'0 1.0
2018-Apr-12 18:00N 28°08' W 015°25'1 2.5
2018-Apr-12 17:29N 28°06' W 015°24'  

Dump ship's entire track history